createdAt,value
2022-11-15T00:02:05.128Z,61.64
2022-11-15T00:05:10.814Z,61.65
2022-11-15T00:08:16.501Z,61.83
2022-11-15T00:11:23.518Z,61.73
2022-11-15T00:14:29.048Z,61.66
2022-11-15T00:17:35.016Z,61.28
2022-11-15T00:20:40.642Z,61.12
2022-11-15T00:23:46.181Z,61.08
2022-11-15T00:26:53.103Z,61.22
2022-11-15T00:29:58.740Z,61.37
2022-11-15T00:33:05.388Z,61.35
2022-11-15T00:36:11.778Z,61.33
2022-11-15T00:39:17.469Z,61.21
2022-11-15T00:42:24.605Z,61.12
2022-11-15T00:45:30.206Z,61.29
2022-11-15T00:48:35.332Z,61.43
2022-11-15T00:51:41.069Z,61.63
2022-11-15T00:54:46.585Z,61.68
2022-11-15T00:57:53.360Z,61.74
2022-11-15T01:00:58.873Z,61.65
2022-11-15T01:04:04.297Z,61.63
2022-11-15T01:07:09.703Z,61.71
2022-11-15T01:10:15.148Z,61.92
2022-11-15T01:13:21.899Z,62.22
2022-11-15T01:16:27.460Z,62.18
2022-11-15T01:19:32.870Z,62.31
2022-11-15T01:22:38.325Z,62.60
2022-11-15T01:25:43.685Z,62.39
2022-11-15T01:28:50.714Z,62.25
2022-11-15T01:31:56.208Z,62.13
2022-11-15T01:35:01.658Z,62.07
2022-11-15T01:38:07.394Z,61.95
2022-11-15T01:41:19.266Z,61.74
2022-11-15T01:44:42.480Z,61.91
2022-11-15T01:47:52.825Z,62.16
2022-11-15T01:50:58.874Z,61.63
2022-11-15T01:54:08.718Z,61.51
2022-11-15T01:57:15.372Z,61.48
2022-11-15T02:00:22.557Z,61.42
2022-11-15T02:03:43.870Z,61.48
2022-11-15T02:06:51.179Z,61.41
2022-11-15T02:09:58.495Z,61.55
2022-11-15T02:13:04.634Z,61.83
2022-11-15T02:16:18.449Z,61.82
2022-11-15T02:19:42.480Z,61.93
2022-11-15T02:23:02.849Z,61.97
2022-11-15T02:26:32.840Z,61.87
2022-11-15T02:30:06.156Z,62.34
2022-11-15T02:33:24.119Z,62.65
2022-11-15T02:36:39.699Z,62.50
2022-11-15T02:39:51.981Z,62.47
2022-11-15T02:43:19.726Z,62.08
2022-11-15T02:46:44.303Z,61.90
2022-11-15T02:49:54.214Z,61.95
2022-11-15T02:52:59.684Z,62.07
2022-11-15T02:56:05.253Z,62.10
2022-11-15T02:59:24.779Z,62.07
2022-11-15T03:02:48.051Z,62.42
2022-11-15T03:06:06.156Z,62.38
2022-11-15T03:09:19.680Z,62.33
2022-11-15T03:12:32.401Z,62.32
2022-11-15T03:15:42.629Z,62.34
2022-11-15T03:18:52.054Z,62.48
2022-11-15T03:22:01.996Z,62.18
2022-11-15T03:25:11.634Z,62.13
2022-11-15T03:28:22.483Z,62.04
2022-11-15T03:31:51.630Z,61.91
2022-11-15T03:35:01.113Z,62.05
2022-11-15T03:38:17.744Z,61.88
2022-11-15T03:41:30.113Z,61.96
2022-11-15T03:44:43.519Z,61.90
2022-11-15T03:47:53.864Z,62.11
2022-11-15T03:50:59.742Z,62.09
2022-11-15T03:54:07.595Z,62.17
2022-11-15T03:57:13.536Z,62.12
2022-11-15T04:00:19.396Z,62.17
2022-11-15T04:03:24.702Z,62.03
2022-11-15T04:06:30.077Z,62.04
2022-11-15T04:09:58.090Z,61.94
2022-11-15T04:13:05.212Z,62.03
2022-11-15T04:16:11.395Z,62.11
2022-11-15T04:19:34.609Z,62.15
2022-11-15T04:22:57.435Z,62.22
2022-11-15T04:26:08.115Z,62.32
2022-11-15T04:29:31.221Z,62.21
2022-11-15T04:32:38.410Z,62.14
2022-11-15T04:36:05.474Z,61.99
2022-11-15T04:39:11.139Z,61.94
2022-11-15T04:42:18.119Z,61.99
2022-11-15T04:45:26.606Z,61.94
2022-11-15T04:48:31.814Z,62.03
2022-11-15T04:51:37.271Z,62.14
2022-11-15T04:54:43.816Z,62.04
2022-11-15T04:58:00.098Z,62.13
2022-11-15T05:01:09.365Z,62.63
2022-11-15T05:04:23.725Z,62.26
2022-11-15T05:07:29.170Z,62.06
2022-11-15T05:10:34.780Z,62.02
2022-11-15T05:13:41.873Z,61.98
2022-11-15T05:16:47.072Z,61.92
2022-11-15T05:19:52.906Z,62.00
2022-11-15T05:22:58.283Z,62.05
2022-11-15T05:26:09.061Z,62.29
2022-11-15T05:29:16.679Z,62.33
2022-11-15T05:32:23.134Z,62.53
2022-11-15T05:35:33.011Z,62.50
2022-11-15T05:38:38.399Z,62.57
2022-11-15T05:41:46.867Z,62.42
2022-11-15T05:44:53.264Z,62.60
2022-11-15T05:48:02.437Z,62.58
2022-11-15T05:51:09.521Z,62.62
2022-11-15T05:54:15.857Z,62.72
2022-11-15T05:57:21.304Z,62.72
2022-11-15T06:00:28.184Z,62.56
2022-11-15T06:03:33.888Z,62.45
2022-11-15T06:06:39.625Z,62.38
2022-11-15T06:09:45.066Z,62.22
2022-11-15T06:12:58.498Z,62.19
2022-11-15T06:16:05.752Z,62.24
2022-11-15T06:19:11.197Z,62.01
2022-11-15T06:22:16.531Z,62.05
2022-11-15T06:25:22.023Z,61.91
2022-11-15T06:28:30.758Z,61.88
2022-11-15T06:31:38.186Z,61.94
2022-11-15T06:34:43.832Z,61.95
2022-11-15T06:37:49.363Z,62.05
2022-11-15T06:40:54.614Z,62.17
2022-11-15T06:44:00.352Z,62.35
2022-11-15T06:47:07.317Z,62.39
2022-11-15T06:50:12.807Z,62.34
2022-11-15T06:53:18.031Z,62.20
2022-11-15T06:56:23.409Z,62.12
2022-11-15T06:59:28.887Z,62.13
2022-11-15T07:02:35.754Z,62.20
2022-11-15T07:05:41.278Z,62.21
2022-11-15T07:08:47.447Z,62.21
2022-11-15T07:11:53.071Z,62.02
2022-11-15T07:14:58.230Z,61.84
2022-11-15T07:18:05.063Z,61.76
2022-11-15T07:21:12.441Z,61.75
2022-11-15T07:24:18.214Z,61.69
2022-11-15T07:27:23.846Z,61.73
2022-11-15T07:30:30.187Z,61.93
2022-11-15T07:33:37.258Z,61.61
2022-11-15T07:36:42.977Z,61.53
2022-11-15T07:39:48.782Z,61.63
2022-11-15T07:42:58.107Z,61.69
2022-11-15T07:46:10.144Z,61.61
2022-11-15T07:49:17.045Z,61.65
2022-11-15T07:52:22.988Z,61.60
2022-11-15T07:55:30.804Z,61.59
2022-11-15T07:58:36.420Z,61.42
2022-11-15T08:01:42.303Z,61.53
2022-11-15T08:04:49.350Z,61.63
2022-11-15T08:07:57.360Z,61.29
2022-11-15T08:11:03.389Z,61.37
2022-11-15T08:14:08.911Z,61.37
2022-11-15T08:17:14.691Z,61.26
2022-11-15T08:20:21.684Z,61.13
2022-11-15T08:23:26.934Z,61.19
2022-11-15T08:26:32.563Z,61.12
2022-11-15T08:29:38.628Z,61.03
2022-11-15T08:32:44.022Z,61.17
2022-11-15T08:35:50.787Z,60.97
2022-11-15T08:38:56.279Z,61.09
2022-11-15T08:42:01.778Z,60.84
2022-11-15T08:45:08.929Z,60.46
2022-11-15T08:48:14.248Z,60.72
2022-11-15T08:51:20.940Z,60.66
2022-11-15T08:54:26.877Z,60.48
2022-11-15T08:57:32.483Z,60.40
2022-11-15T09:00:37.894Z,60.35
2022-11-15T09:03:43.350Z,59.91
2022-11-15T09:06:51.276Z,59.86
2022-11-15T09:09:57.646Z,60.03
2022-11-15T09:13:03.069Z,59.71
2022-11-15T09:16:08.933Z,59.85
2022-11-15T09:19:15.779Z,59.12
2022-11-15T09:22:23.335Z,59.71
2022-11-15T09:25:29.198Z,59.51
2022-11-15T09:28:35.799Z,59.29
2022-11-15T09:31:41.211Z,59.11
2022-11-15T09:34:46.743Z,58.93
2022-11-15T09:37:56.346Z,58.88
2022-11-15T09:41:23.655Z,58.67
2022-11-15T09:44:51.922Z,57.47
2022-11-15T09:48:36.017Z,57.19
2022-11-15T09:51:30.037Z,57.01
2022-11-15T09:57:47.783Z,57.73
2022-11-15T10:00:46.341Z,56.88
2022-11-15T10:03:38.477Z,57.29
2022-11-15T10:06:27.429Z,57.49
2022-11-15T10:09:22.847Z,57.65
2022-11-15T10:12:14.999Z,56.80
2022-11-15T10:15:06.239Z,56.97
2022-11-15T10:18:09.974Z,56.84
2022-11-15T10:21:01.442Z,55.18
2022-11-15T10:23:48.204Z,56.77
2022-11-15T10:26:35.016Z,56.99
2022-11-15T10:29:27.104Z,57.06
2022-11-15T10:32:15.743Z,56.69
2022-11-15T10:35:19.500Z,56.76
2022-11-15T10:38:08.562Z,54.37
2022-11-15T10:41:09.233Z,56.38
2022-11-15T10:44:10.649Z,54.42
2022-11-15T10:47:37.830Z,55.00
2022-11-15T10:50:32.985Z,53.11
2022-11-15T10:53:25.924Z,54.76
2022-11-15T10:56:17.005Z,55.15
2022-11-15T10:59:03.878Z,55.96
2022-11-15T11:01:51.228Z,55.89
2022-11-15T11:04:51.909Z,55.79
2022-11-15T11:07:41.682Z,54.09
2022-11-15T11:10:50.354Z,55.01
2022-11-15T11:13:37.930Z,55.26
2022-11-15T11:16:47.163Z,55.43
2022-11-15T11:19:59.071Z,52.47
2022-11-15T11:22:59.679Z,53.33
2022-11-15T11:25:55.488Z,53.71
2022-11-15T11:28:38.445Z,54.53
2022-11-15T11:31:22.254Z,53.45
2022-11-15T11:34:00.769Z,53.19
2022-11-15T11:36:41.245Z,54.05
2022-11-15T11:39:26.365Z,54.20
2022-11-15T11:42:04.927Z,52.28
2022-11-15T11:44:41.550Z,53.41
2022-11-15T11:47:13.120Z,53.66
2022-11-15T11:49:46.931Z,54.20
2022-11-15T11:52:19.090Z,53.76
2022-11-15T11:55:05.967Z,54.09
2022-11-15T11:57:44.017Z,52.61
2022-11-15T12:00:22.117Z,53.47
2022-11-15T12:03:10.208Z,53.12
2022-11-15T12:05:42.627Z,51.52
2022-11-15T12:08:28.105Z,53.33
2022-11-15T12:11:05.902Z,51.56
2022-11-15T12:13:37.797Z,53.27
2022-11-15T12:16:14.126Z,53.88
2022-11-15T12:18:46.739Z,52.71
2022-11-15T12:21:28.102Z,53.56
2022-11-15T12:24:05.111Z,53.38
2022-11-15T12:26:39.542Z,52.88
2022-11-15T12:29:14.176Z,51.95
2022-11-15T12:31:46.871Z,50.47
2022-11-15T12:34:32.461Z,52.46
2022-11-15T12:37:00.761Z,52.44
2022-11-15T12:40:06.996Z,52.53
2022-11-15T12:42:43.325Z,49.49
2022-11-15T12:45:28.490Z,50.40
2022-11-15T12:48:14.031Z,49.69
2022-11-15T12:50:59.136Z,52.26
2022-11-15T12:53:31.915Z,49.15
2022-11-15T12:56:25.982Z,50.85
2022-11-15T12:58:58.289Z,49.22
2022-11-15T13:01:59.851Z,51.11
2022-11-15T13:04:30.736Z,49.43
2022-11-15T13:07:04.217Z,51.83
2022-11-15T13:09:55.995Z,51.66
2022-11-15T13:12:54.887Z,48.64
2022-11-15T13:16:00.654Z,49.01
2022-11-15T13:18:38.343Z,49.89
2022-11-15T13:21:38.829Z,51.71
2022-11-15T13:24:14.423Z,51.98
2022-11-15T13:26:42.704Z,50.87
2022-11-15T13:29:19.666Z,51.72
2022-11-15T13:31:50.303Z,50.58
2022-11-15T13:37:32.079Z,50.30
2022-11-15T13:40:20.194Z,49.18
2022-11-15T13:42:48.497Z,49.69
2022-11-15T13:45:19.717Z,51.67
2022-11-15T13:47:56.510Z,51.47
2022-11-15T13:50:28.668Z,50.75
2022-11-15T13:53:00.799Z,51.37
2022-11-15T13:55:30.518Z,51.09
2022-11-15T13:58:01.023Z,51.54
2022-11-15T14:00:39.719Z,51.48
2022-11-15T14:03:18.520Z,50.52
2022-11-15T14:06:03.283Z,50.92
2022-11-15T14:08:32.308Z,51.64
2022-11-15T14:11:17.751Z,51.60
2022-11-15T14:14:06.701Z,50.40
2022-11-15T14:16:37.544Z,50.76
2022-11-15T14:19:09.178Z,51.63
2022-11-15T14:21:38.505Z,51.66
2022-11-15T14:24:17.384Z,51.79
2022-11-15T14:26:46.374Z,51.11
2022-11-15T14:29:25.207Z,51.91
2022-11-15T14:31:53.594Z,51.05
2022-11-15T14:34:23.668Z,51.83
2022-11-15T14:36:52.277Z,52.17
2022-11-15T14:39:20.454Z,52.25
2022-11-15T14:41:50.107Z,52.07
2022-11-15T14:44:51.174Z,52.08
2022-11-15T14:47:20.699Z,52.34
2022-11-15T14:49:50.309Z,52.56
2022-11-15T14:52:32.236Z,52.68
2022-11-15T14:55:03.264Z,52.73
2022-11-15T14:57:32.334Z,53.23
2022-11-15T15:00:00.832Z,53.17
2022-11-15T15:02:40.987Z,53.34
2022-11-15T15:05:19.411Z,53.63
2022-11-15T15:07:48.768Z,53.69
2022-11-15T15:10:39.584Z,53.93
2022-11-15T15:13:08.538Z,53.84
2022-11-15T15:15:38.632Z,53.93
2022-11-15T15:18:09.477Z,54.31
2022-11-15T15:20:41.261Z,54.68
2022-11-15T15:23:17.616Z,54.91
2022-11-15T15:25:47.313Z,54.96
2022-11-15T15:28:15.832Z,54.74
2022-11-15T15:30:44.065Z,54.93
2022-11-15T15:33:12.351Z,55.09
2022-11-15T15:35:42.244Z,55.08
2022-11-15T15:38:13.093Z,55.26
2022-11-15T15:40:41.670Z,55.53
2022-11-15T15:43:10.303Z,55.37
2022-11-15T15:45:40.335Z,55.25
2022-11-15T15:48:13.328Z,55.22
2022-11-15T15:50:44.245Z,55.24
2022-11-15T15:53:13.756Z,55.13
2022-11-15T15:55:42.427Z,55.09
2022-11-15T15:58:10.693Z,55.17
2022-11-15T16:00:39.833Z,55.66
2022-11-15T16:03:08.444Z,55.49
2022-11-15T16:05:36.804Z,55.32
2022-11-15T16:08:06.689Z,55.51
2022-11-15T16:10:37.691Z,55.92
2022-11-15T16:13:06.132Z,56.16
2022-11-15T16:15:34.683Z,56.33
2022-11-15T16:18:03.627Z,56.54
2022-11-15T16:20:38.311Z,56.35
2022-11-15T16:23:10.961Z,56.64
2022-11-15T16:25:41.872Z,56.51
2022-11-15T16:28:18.751Z,56.27
2022-11-15T16:30:50.018Z,56.46
2022-11-15T16:33:22.301Z,56.15
2022-11-15T16:35:50.483Z,56.10
2022-11-15T16:38:20.298Z,56.21
2022-11-15T16:40:48.809Z,56.38
2022-11-15T16:43:17.122Z,56.66
2022-11-15T16:45:45.305Z,56.74
2022-11-15T16:48:23.708Z,56.66
2022-11-15T16:50:52.511Z,57.07
2022-11-15T16:53:22.336Z,56.74
2022-11-15T16:55:50.709Z,56.74
2022-11-15T16:58:18.883Z,56.60
2022-11-15T17:00:47.367Z,56.95
2022-11-15T17:03:15.469Z,57.15
2022-11-15T17:05:43.672Z,57.05
2022-11-15T17:08:12.135Z,56.93
2022-11-15T17:10:42.413Z,57.06
2022-11-15T17:13:13.207Z,57.05
2022-11-15T17:15:41.742Z,57.11
2022-11-15T17:18:12.318Z,57.30
2022-11-15T17:20:41.906Z,57.54
2022-11-15T17:23:14.501Z,57.45
2022-11-15T17:25:45.711Z,57.21
2022-11-15T17:28:14.105Z,57.02
2022-11-15T17:30:43.839Z,57.25
2022-11-15T17:33:12.226Z,57.31
2022-11-15T17:35:40.712Z,57.22
2022-11-15T17:38:08.847Z,57.25
2022-11-15T17:40:37.093Z,57.20
2022-11-15T17:43:07.852Z,57.24
2022-11-15T17:45:37.519Z,57.28
2022-11-15T17:48:06.219Z,57.30
2022-11-15T17:50:34.372Z,57.35
2022-11-15T17:53:02.587Z,57.48
2022-11-15T17:55:31.048Z,57.59
2022-11-15T17:57:59.149Z,57.65
2022-11-15T18:00:28.750Z,57.67
2022-11-15T18:02:58.327Z,57.68
2022-11-15T18:05:26.536Z,57.66
2022-11-15T18:07:54.750Z,57.72
2022-11-15T18:10:23.403Z,57.77
2022-11-15T18:12:51.586Z,57.82
2022-11-15T18:15:21.349Z,57.77
2022-11-15T18:17:51.140Z,57.88
2022-11-15T18:20:19.729Z,57.92
2022-11-15T18:22:48.256Z,57.94
2022-11-15T18:25:16.826Z,58.03
2022-11-15T18:27:45.132Z,58.13
2022-11-15T18:30:14.126Z,58.15
2022-11-15T18:32:43.003Z,58.14
2022-11-15T18:35:12.739Z,58.41
2022-11-15T18:37:41.026Z,59.25
2022-11-15T18:40:10.755Z,59.38
2022-11-15T18:42:39.271Z,59.55
2022-11-15T18:45:09.604Z,59.41
2022-11-15T18:47:38.589Z,59.31
2022-11-15T18:50:07.497Z,59.64
2022-11-15T18:52:37.093Z,59.73
2022-11-15T18:55:06.202Z,59.57
2022-11-15T18:57:34.513Z,59.25
2022-11-15T19:00:03.051Z,58.91
2022-11-15T19:02:31.892Z,58.80
2022-11-15T19:05:00.190Z,58.68
2022-11-15T19:07:28.472Z,58.63
2022-11-15T19:09:58.396Z,59.18
2022-11-15T19:12:26.678Z,59.54
2022-11-15T19:14:54.902Z,59.79
2022-11-15T19:17:23.443Z,59.86
2022-11-15T19:19:51.771Z,60.12
2022-11-15T19:22:20.076Z,59.88
2022-11-15T19:24:48.651Z,60.00
2022-11-15T19:27:18.425Z,59.82
2022-11-15T19:29:46.974Z,59.85
2022-11-15T19:32:15.657Z,59.72
2022-11-15T19:34:44.062Z,60.03
2022-11-15T19:37:12.406Z,60.21
2022-11-15T19:39:41.486Z,60.17
2022-11-15T19:42:09.742Z,59.88
2022-11-15T19:44:39.288Z,59.66
2022-11-15T19:47:09.323Z,60.09
2022-11-15T19:49:37.711Z,59.58
2022-11-15T19:52:06.298Z,59.25
2022-11-15T19:54:34.864Z,59.09
2022-11-15T19:57:03.200Z,59.11
2022-11-15T19:59:31.537Z,58.87
2022-11-15T20:02:01.707Z,58.72
2022-11-15T20:04:30.163Z,58.83
2022-11-15T20:06:58.281Z,58.69
2022-11-15T20:09:26.656Z,58.59
2022-11-15T20:11:55.436Z,59.06
2022-11-15T20:14:24.145Z,59.39
2022-11-15T20:16:54.469Z,59.67
2022-11-15T20:19:24.679Z,59.83
2022-11-15T20:21:53.217Z,59.85
2022-11-15T20:24:21.540Z,59.86
2022-11-15T20:26:50.055Z,59.58
2022-11-15T20:29:18.155Z,59.44
2022-11-15T20:31:46.777Z,59.29
2022-11-15T20:34:15.972Z,59.23
2022-11-15T20:36:45.594Z,59.23
2022-11-15T20:39:13.774Z,59.88
2022-11-15T20:41:42.388Z,60.17
2022-11-15T20:44:10.659Z,60.18
2022-11-15T20:46:38.813Z,60.32
2022-11-15T20:49:07.438Z,60.11
2022-11-15T20:51:36.450Z,60.22
2022-11-15T20:54:06.285Z,60.18
2022-11-15T20:56:34.758Z,60.09
2022-11-15T20:59:02.925Z,60.31
2022-11-15T21:01:31.944Z,60.49
2022-11-15T21:04:00.826Z,60.71
2022-11-15T21:06:28.968Z,61.01
2022-11-15T21:09:14.662Z,60.94
2022-11-15T21:12:02.359Z,60.66
2022-11-15T21:14:31.259Z,60.35
2022-11-15T21:16:59.759Z,60.72
2022-11-15T21:19:32.682Z,60.59
2022-11-15T21:22:05.539Z,60.26
2022-11-15T21:24:33.798Z,60.05
2022-11-15T21:27:03.603Z,60.24
2022-11-15T21:29:37.598Z,60.49
2022-11-15T21:32:07.427Z,60.44
2022-11-15T21:34:36.050Z,60.61
2022-11-15T21:37:04.333Z,60.56
2022-11-15T21:39:32.462Z,60.74
2022-11-15T21:42:01.042Z,61.09
2022-11-15T21:44:30.889Z,60.70
2022-11-15T21:46:59.287Z,60.86
2022-11-15T21:49:27.789Z,61.97
2022-11-15T21:51:55.947Z,62.68
2022-11-15T21:54:24.168Z,62.49
2022-11-15T21:56:52.648Z,62.53
2022-11-15T21:59:20.735Z,62.62
2022-11-15T22:02:07.607Z,62.67
2022-11-15T22:04:36.073Z,62.36
2022-11-15T22:07:04.267Z,62.39
2022-11-15T22:09:32.369Z,62.27
2022-11-15T22:12:00.932Z,62.06
2022-11-15T22:14:29.177Z,61.99
2022-11-15T22:16:58.623Z,62.05
2022-11-15T22:19:27.214Z,62.03
2022-11-15T22:21:55.490Z,62.11
2022-11-15T22:24:23.683Z,61.97
2022-11-15T22:26:52.901Z,61.71
2022-11-15T22:29:21.286Z,61.55
2022-11-15T22:31:49.550Z,61.72
2022-11-15T22:34:19.707Z,61.58
2022-11-15T22:37:18.038Z,61.58
2022-11-15T22:39:36.478Z,61.38
2022-11-15T22:42:04.782Z,61.38
2022-11-15T22:44:32.999Z,61.21
2022-11-15T22:47:01.439Z,61.09
2022-11-15T22:49:30.951Z,60.90
2022-11-15T22:51:59.335Z,60.84
2022-11-15T22:54:28.835Z,60.73
2022-11-15T22:56:57.322Z,60.57
2022-11-15T22:59:26.209Z,60.69
2022-11-15T23:01:54.701Z,60.65
2022-11-15T23:04:23.310Z,60.45
2022-11-15T23:06:53.089Z,60.44
2022-11-15T23:09:21.846Z,60.40
2022-11-15T23:12:07.594Z,60.35
2022-11-15T23:14:36.087Z,60.41
2022-11-15T23:17:04.317Z,60.54
2022-11-15T23:19:32.567Z,60.39
2022-11-15T23:22:20.378Z,60.46
2022-11-15T23:24:48.635Z,60.50
2022-11-15T23:27:19.974Z,60.25
2022-11-15T23:30:06.186Z,60.17
2022-11-15T23:32:52.186Z,60.27
2022-11-15T23:35:20.750Z,60.51
2022-11-15T23:37:50.980Z,60.44
2022-11-15T23:40:19.385Z,60.38
2022-11-15T23:42:47.753Z,60.43
2022-11-15T23:45:16.373Z,60.34
2022-11-15T23:47:49.757Z,60.20
2022-11-15T23:50:18.621Z,60.16
2022-11-15T23:52:46.838Z,60.07
2022-11-15T23:55:16.638Z,59.94
2022-11-15T23:57:45.160Z,59.81
